createdAt,value
2019-04-05T10:44:32.707Z,98887.38
2019-04-05T10:47:05.306Z,98885.94
2019-04-05T10:49:38.686Z,98879.97
2019-04-05T10:52:11.312Z,98884.52
2019-04-05T10:54:44.254Z,98886.80
2019-04-05T10:57:17.676Z,98885.98
2019-04-05T10:59:51.389Z,98881.98
2019-04-05T11:02:24.670Z,98883.98
2019-04-05T11:04:57.826Z,98882.08
2019-04-05T11:07:31.664Z,98873.23
2019-04-05T11:10:05.419Z,98883.74
2019-04-05T11:12:38.845Z,98884.70
2019-04-05T11:15:14.985Z,98877.03
2019-04-05T11:17:47.424Z,98882.81
2019-04-05T11:20:21.922Z,98880.16
2019-04-05T11:22:56.064Z,98879.55
2019-04-05T11:25:28.569Z,98882.17
2019-04-05T11:28:00.878Z,98883.14
2019-04-05T11:30:43.025Z,98884.45
2019-04-05T11:33:15.365Z,98895.31
2019-04-05T11:35:48.770Z,98892.55
2019-04-05T11:38:24.395Z,98887.01
2019-04-05T11:40:58.372Z,98887.82
2019-04-05T11:43:32.996Z,98886.62
2019-04-05T11:46:06.757Z,98883.19
2019-04-05T11:48:41.236Z,98886.44
2019-04-05T11:51:14.985Z,98889.73
2019-04-05T11:53:48.097Z,98891.38
2019-04-05T11:56:21.473Z,98887.24
2019-04-05T11:58:55.292Z,98892.78
2019-04-05T12:01:33.870Z,98891.27
2019-04-05T12:04:07.154Z,98889.93
2019-04-05T12:06:40.574Z,98897.98
2019-04-05T12:09:14.003Z,98888.89
2019-04-05T12:11:47.336Z,98893.05
2019-04-05T12:14:30.165Z,98888.40
2019-04-05T12:16:54.885Z,98880.73
2019-04-05T12:19:28.336Z,98878.50
2019-04-05T12:22:04.528Z,98880.70
2019-04-05T12:24:37.457Z,98882.52
2019-04-05T12:27:10.433Z,98878.02
2019-04-05T12:29:43.953Z,98877.76
2019-04-05T12:32:32.586Z,98888.30
2019-04-05T12:34:53.999Z,98890.13
2019-04-05T12:37:27.408Z,98886.86
2019-04-05T12:40:00.416Z,98884.16
2019-04-05T12:42:34.449Z,98884.58
2019-04-05T12:45:08.114Z,98880.87
2019-04-05T12:47:40.899Z,98885.34
2019-04-05T12:50:15.333Z,98881.20
2019-04-05T12:52:49.220Z,98884.15
2019-04-05T12:55:24.121Z,98889.77
2019-04-05T12:57:57.819Z,98886.13
2019-04-05T13:00:31.316Z,98895.81
2019-04-05T13:03:04.263Z,98891.84
2019-04-05T13:05:37.210Z,98887.15
2019-04-05T13:08:10.248Z,98888.22
2019-04-05T13:10:43.643Z,98881.73
2019-04-05T13:13:16.667Z,98879.11
2019-04-05T13:15:48.932Z,98874.81
2019-04-05T13:18:25.015Z,98878.83
2019-04-05T13:20:58.288Z,98872.22
2019-04-05T13:23:33.734Z,98880.81
2019-04-05T13:26:07.272Z,98881.73
2019-04-05T13:28:40.635Z,98871.59
2019-04-05T13:31:13.964Z,98864.95
2019-04-05T13:33:47.308Z,98866.31
2019-04-05T13:36:20.353Z,98866.44
2019-04-05T13:38:54.903Z,98862.36
2019-04-05T13:41:31.487Z,98872.57
2019-04-05T13:44:04.326Z,98871.77
2019-04-05T13:46:39.076Z,98869.45
2019-04-05T13:49:12.199Z,98867.14
2019-04-05T13:51:45.627Z,98861.51
2019-04-05T13:54:18.859Z,98863.02
2019-04-05T13:56:52.254Z,98851.70
2019-04-05T13:59:25.979Z,98851.13
2019-04-05T14:02:05.897Z,98853.30
2019-04-05T14:04:34.782Z,98854.84
2019-04-05T14:07:07.379Z,98843.70
2019-04-05T14:09:41.257Z,98850.85
2019-04-05T14:12:14.789Z,98845.33
2019-04-05T14:14:51.299Z,98840.19
2019-04-05T14:17:24.532Z,98838.52
2019-04-05T14:19:57.957Z,98838.05
2019-04-05T14:22:30.704Z,98836.69
2019-04-05T14:25:05.674Z,98832.31
2019-04-05T14:27:39.566Z,98825.84
2019-04-05T14:30:14.302Z,98828.58
2019-04-05T14:32:50.587Z,98833.27
2019-04-05T14:35:24.472Z,98831.17
2019-04-05T14:37:56.919Z,98830.91
2019-04-05T14:40:32.844Z,98832.44
2019-04-05T14:43:04.800Z,98830.08
2019-04-05T14:45:37.826Z,98826.95
2019-04-05T14:48:11.299Z,98829.61
2019-04-05T14:50:44.455Z,98822.91
2019-04-05T14:53:17.847Z,98822.05
2019-04-05T14:55:50.904Z,98825.77
2019-04-05T14:58:24.648Z,98819.87
2019-04-05T15:00:57.188Z,98817.57
2019-04-05T15:03:30.072Z,98825.58
2019-04-05T15:06:03.063Z,98825.98
2019-04-05T15:08:35.956Z,98821.14
2019-04-05T15:11:11.040Z,98817.53
2019-04-05T15:13:44.297Z,98820.98
2019-04-05T15:16:18.199Z,98816.79
2019-04-05T15:18:52.077Z,98811.83
2019-04-05T15:21:25.808Z,98818.72
2019-04-05T15:23:59.490Z,98811.16
2019-04-05T15:26:32.813Z,98813.31
2019-04-05T15:29:06.038Z,98815.45
2019-04-05T15:31:38.602Z,98812.08
2019-04-05T15:34:12.034Z,98823.46
2019-04-05T15:36:45.169Z,98817.38
2019-04-05T15:39:18.134Z,98820.97
2019-04-05T15:41:51.665Z,98828.32
2019-04-05T15:44:25.365Z,98825.38
2019-04-05T15:46:58.757Z,98819.97
2019-04-05T15:49:32.279Z,98829.63
2019-04-05T15:52:18.167Z,98827.75
2019-04-05T15:54:43.235Z,98830.87
2019-04-05T15:57:16.679Z,98823.00
2019-04-05T15:59:49.799Z,98818.28
2019-04-05T16:02:23.123Z,98815.00
2019-04-05T16:04:56.371Z,98818.17
2019-04-05T16:07:30.067Z,98816.58
2019-04-05T16:10:03.915Z,98820.19
2019-04-05T16:12:36.273Z,98826.63
2019-04-05T16:15:09.704Z,98831.68
2019-04-05T16:17:43.468Z,98830.70
2019-04-05T16:20:17.012Z,98830.17
2019-04-05T16:22:50.457Z,98832.20
2019-04-05T16:25:23.160Z,98831.27
2019-04-05T16:27:56.806Z,98836.19
2019-04-05T16:30:30.305Z,98841.98
2019-04-05T16:33:03.806Z,98837.19
2019-04-05T16:35:36.875Z,98839.42
2019-04-05T16:38:09.957Z,98846.77
2019-04-05T16:40:43.063Z,98847.03
2019-04-05T16:43:15.745Z,98850.01
2019-04-05T16:45:48.917Z,98845.95
2019-04-05T16:48:22.431Z,98843.58
2019-04-05T16:50:55.827Z,98847.82
2019-04-05T16:53:28.426Z,98848.39
2019-04-05T16:56:01.187Z,98847.55
2019-04-05T16:58:34.310Z,98842.27
2019-04-05T17:01:07.683Z,98843.11
2019-04-05T17:03:40.994Z,98842.69
2019-04-05T17:06:14.069Z,98844.61
2019-04-05T17:08:47.002Z,98844.46
2019-04-05T17:11:20.198Z,98846.27
2019-04-05T17:13:59.405Z,98854.38
2019-04-05T17:16:31.835Z,98849.03
2019-04-05T17:19:05.366Z,98854.02
2019-04-05T17:21:38.974Z,98858.20
2019-04-05T17:24:12.462Z,98856.95
2019-04-05T17:26:46.077Z,98850.63
2019-04-05T17:29:19.521Z,98862.73
2019-04-05T17:31:52.967Z,98854.20
2019-04-05T17:34:26.158Z,98861.80
2019-04-05T17:36:59.535Z,98857.70
2019-04-05T17:39:32.358Z,98851.92
2019-04-05T17:42:04.707Z,98852.25
2019-04-05T17:44:37.855Z,98848.39
2019-04-05T17:47:10.192Z,98850.94
2019-04-05T17:49:43.662Z,98852.34
2019-04-05T17:52:16.634Z,98857.66
2019-04-05T17:54:49.452Z,98858.59
2019-04-05T17:57:22.934Z,98864.36
2019-04-05T17:59:56.233Z,98867.02
2019-04-05T18:02:29.918Z,98869.81
2019-04-05T18:05:03.123Z,98872.94
2019-04-05T18:07:37.348Z,98868.00
2019-04-05T18:10:11.049Z,98868.51
2019-04-05T18:12:44.665Z,98872.98
2019-04-05T18:15:18.148Z,98872.94
2019-04-05T18:17:51.894Z,98873.03
2019-04-05T18:20:25.701Z,98873.54
2019-04-05T18:22:58.738Z,98875.53
2019-04-05T18:25:32.267Z,98873.08
2019-04-05T18:28:05.636Z,98873.87
2019-04-05T18:30:39.651Z,98876.98
2019-04-05T18:33:13.289Z,98883.09
2019-04-05T18:35:46.794Z,98879.73
2019-04-05T18:38:21.428Z,98885.13
2019-04-05T18:40:54.708Z,98886.77
2019-04-05T18:43:28.259Z,98889.86
2019-04-05T18:46:01.422Z,98895.58
2019-04-05T18:48:34.488Z,98898.28
2019-04-05T18:51:08.255Z,98907.38
2019-04-05T18:53:41.969Z,98903.36
2019-04-05T18:56:15.772Z,98903.08
2019-04-05T18:58:48.132Z,98906.30
2019-04-05T19:01:20.771Z,98906.61
2019-04-05T19:03:54.685Z,98915.84
2019-04-05T19:06:28.146Z,98909.50
2019-04-05T19:09:04.271Z,98912.63
2019-04-05T19:11:38.522Z,98913.55
2019-04-05T19:14:11.926Z,98912.34
2019-04-05T19:16:45.221Z,98915.05
2019-04-05T19:19:18.687Z,98910.86
2019-04-05T19:21:51.878Z,98915.44
2019-04-05T19:24:24.995Z,98917.66
2019-04-05T19:26:58.438Z,98915.89
2019-04-05T19:29:32.345Z,98920.42
2019-04-05T19:50:12.178Z,98911.75
2019-04-05T19:52:45.679Z,98912.84
2019-04-05T19:55:18.911Z,98910.13
2019-04-05T19:57:52.885Z,98912.22
2019-04-05T20:00:26.675Z,98910.54
2019-04-05T20:02:59.675Z,98919.58
2019-04-05T20:05:32.377Z,98913.24
2019-04-05T20:08:05.043Z,98914.08
2019-04-05T20:10:38.242Z,98912.17
2019-04-05T20:13:11.712Z,98919.48
2019-04-05T20:15:45.452Z,98913.57
2019-04-05T20:18:18.914Z,98926.16
2019-04-05T20:20:52.388Z,98924.66
2019-04-05T20:23:25.507Z,98919.72
2019-04-05T20:25:58.969Z,98920.48
2019-04-05T20:28:32.834Z,98913.25
2019-04-05T20:31:05.894Z,98915.95
2019-04-05T20:33:38.987Z,98913.67
2019-04-05T20:36:12.408Z,98912.91
2019-04-05T20:38:46.024Z,98909.62
2019-04-05T20:41:19.664Z,98909.67
2019-04-05T20:43:53.090Z,98908.78
2019-04-05T20:46:26.174Z,98905.73
2019-04-05T20:48:59.750Z,98909.89
2019-04-05T20:51:32.790Z,98907.14
2019-04-05T20:54:06.266Z,98914.52
2019-04-05T20:56:39.893Z,98918.15
2019-04-05T20:59:13.709Z,98916.18
2019-04-05T21:01:47.832Z,98907.48
2019-04-05T21:04:23.020Z,98912.38
2019-04-05T21:06:56.036Z,98887.48
2019-04-05T21:09:28.613Z,98899.08
2019-04-05T21:12:01.727Z,98903.23
2019-04-05T21:14:34.030Z,98895.81
2019-04-05T21:17:07.187Z,98892.89
2019-04-05T21:19:40.314Z,98888.41
2019-04-05T21:22:13.872Z,98878.02
2019-04-05T21:24:47.241Z,98872.42
2019-04-05T21:27:21.183Z,98865.91
2019-04-05T21:29:55.298Z,98877.28
2019-04-05T21:32:28.779Z,98876.56
2019-04-05T21:35:01.478Z,98885.05
2019-04-05T21:37:34.946Z,98887.75
2019-04-05T21:40:07.931Z,98888.64
2019-04-05T21:42:41.015Z,98901.46
2019-04-05T21:45:13.557Z,98907.19
2019-04-05T21:47:46.657Z,98907.75
2019-04-05T21:50:19.559Z,98898.19
2019-04-05T21:52:52.866Z,98908.16
2019-04-05T21:55:25.561Z,98907.19
2019-04-05T21:57:58.961Z,98908.20
2019-04-05T22:00:42.790Z,98908.67
2019-04-05T22:03:17.710Z,98903.59
2019-04-05T22:05:51.125Z,98909.50
2019-04-05T22:08:24.113Z,98910.96
2019-04-05T22:10:57.141Z,98910.96
2019-04-05T22:13:37.366Z,98908.99
2019-04-05T22:16:11.265Z,98911.47
2019-04-05T22:18:44.766Z,98905.45
2019-04-05T22:21:17.769Z,98887.38
2019-04-05T22:23:50.874Z,98894.38
2019-04-05T22:26:24.333Z,98885.05
2019-04-05T22:28:57.530Z,98885.39
2019-04-05T22:31:30.783Z,98894.14
2019-04-05T22:34:02.999Z,98884.45
2019-04-05T22:36:36.146Z,98888.16
2019-04-05T22:39:09.484Z,98885.66
2019-04-05T22:41:42.872Z,98891.01
2019-04-05T22:44:16.272Z,98887.89
2019-04-05T22:46:49.128Z,98890.80
2019-04-05T22:49:22.127Z,98888.22
2019-04-05T22:51:55.775Z,98891.62
2019-04-05T22:54:29.136Z,98891.85
2019-04-05T22:57:02.645Z,98900.57
2019-04-05T22:59:34.868Z,98894.75
2019-04-05T23:02:07.775Z,98901.51
2019-04-05T23:04:40.970Z,98908.49
2019-04-05T23:07:14.136Z,98904.53
2019-04-05T23:09:46.792Z,98909.47
2019-04-05T23:12:19.333Z,98904.94
2019-04-05T23:14:52.632Z,98907.84
2019-04-05T23:17:25.495Z,98913.06
2019-04-05T23:19:58.394Z,98917.58
2019-04-05T23:22:31.736Z,98913.66
2019-04-05T23:25:04.608Z,98916.54
2019-04-05T23:27:38.190Z,98908.26
2019-04-05T23:30:11.150Z,98908.99
2019-04-05T23:32:43.758Z,98906.48
2019-04-05T23:35:17.980Z,98906.48
2019-04-05T23:37:51.828Z,98912.78
2019-04-05T23:40:25.046Z,98909.52
2019-04-05T23:42:58.393Z,98908.36
2019-04-05T23:45:31.659Z,98909.33
2019-04-05T23:48:05.570Z,98908.53
2019-04-05T23:50:39.475Z,98903.69
2019-04-05T23:53:13.113Z,98894.33
2019-04-05T23:55:45.732Z,98898.66
2019-04-05T23:58:19.465Z,98881.66
